Time;durP1;ratioP1;P1;durP2;ratioP2;P2;SDS_P1;SDS_P2;PMS_P1;PMS_P2;Temp;Humidity;BMP_temperature;BMP_pressure;BME280_temperature;BME280_humidity;BME280_pressure;Samples;Min_cycle;Max_cycle;Signal;HPM_P1;HPM_P2
2023/07/17 00:00:40;;;;;;;7.28;5.10;;;;;;;;;;5108808;28;20185;-63
2023/07/17 00:03:05;;;;;;;8.43;5.50;;;;;;;;;;5110371;28;20024;-62
2023/07/17 00:05:30;;;;;;;13.23;5.28;;;;;;;;;;5108580;28;20099;-62
2023/07/17 00:07:56;;;;;;;7.30;4.70;;;;;;;;;;5108898;28;20024;-62
2023/07/17 00:10:21;;;;;;;7.75;4.97;;;;;;;;;;5113267;28;20498;-62
2023/07/17 00:12:46;;;;;;;12.18;5.15;;;;;;;;;;5104835;28;20020;-62
2023/07/17 00:15:11;;;;;;;8.70;5.15;;;;;;;;;;5108607;28;20461;-63
2023/07/17 00:17:37;;;;;;;7.40;5.07;;;;;;;;;;5091113;28;20064;-63
2023/07/17 00:20:05;;;;;;;6.47;4.33;;;;;;;;;;5109080;28;20038;-63
2023/07/17 00:22:30;;;;;;;12.98;5.25;;;;;;;;;;5106324;28;20306;-62
2023/07/17 00:24:56;;;;;;;10.20;5.03;;;;;;;;;;5101762;28;20047;-62
2023/07/17 00:27:21;;;;;;;9.05;4.63;;;;;;;;;;5104781;28;20285;-62
2023/07/17 00:29:46;;;;;;;9.43;5.53;;;;;;;;;;5113370;28;20389;-62
2023/07/17 00:32:12;;;;;;;8.43;5.75;;;;;;;;;;5104527;28;20024;-63
2023/07/17 00:34:38;;;;;;;10.15;5.15;;;;;;;;;;5112880;28;20102;-63
2023/07/17 00:37:04;;;;;;;7.78;4.25;;;;;;;;;;5095164;28;20100;-62
2023/07/17 00:39:29;;;;;;;6.72;4.75;;;;;;;;;;5113642;28;20115;-63
2023/07/17 00:41:54;;;;;;;12.33;6.27;;;;;;;;;;5105606;28;20015;-63
2023/07/17 00:44:19;;;;;;;8.20;5.17;;;;;;;;;;5100553;28;20266;-63
2023/07/17 00:46:45;;;;;;;9.88;5.25;;;;;;;;;;5112241;28;20760;-63
2023/07/17 00:49:11;;;;;;;7.90;4.68;;;;;;;;;;5112998;28;20024;-63
2023/07/17 00:51:38;;;;;;;10.27;5.75;;;;;;;;;;5112507;28;20028;-62
2023/07/17 00:54:03;;;;;;;12.98;6.13;;;;;;;;;;5112269;28;20027;-62
2023/07/17 00:56:28;;;;;;;9.48;5.40;;;;;;;;;;5112859;28;20503;-63
2023/07/17 00:58:54;;;;;;;10.27;5.35;;;;;;;;;;5112584;28;20566;-63
2023/07/17 01:01:19;;;;;;;11.35;4.82;;;;;;;;;;5098948;28;20020;-63
2023/07/17 01:03:45;;;;;;;8.82;4.68;;;;;;;;;;5112500;28;20027;-63
2023/07/17 01:06:10;;;;;;;9.23;5.63;;;;;;;;;;5112603;28;20055;-63
2023/07/17 01:08:35;;;;;;;11.93;5.22;;;;;;;;;;5112242;28;20035;-63
2023/07/17 01:11:01;;;;;;;8.90;5.55;;;;;;;;;;5111449;28;20016;-62
2023/07/17 01:13:26;;;;;;;7.57;4.97;;;;;;;;;;5112837;28;20051;-63
2023/07/17 01:15:51;;;;;;;8.15;4.80;;;;;;;;;;5112474;28;20571;-61
2023/07/17 01:18:16;;;;;;;9.77;5.40;;;;;;;;;;5112669;28;20026;-61
2023/07/17 01:20:42;;;;;;;17.83;5.10;;;;;;;;;;5111988;28;20289;-61
2023/07/17 01:23:07;;;;;;;14.68;4.93;;;;;;;;;;5112678;28;20103;-61
2023/07/17 01:25:32;;;;;;;12.32;5.40;;;;;;;;;;5099104;28;20035;-61
2023/07/17 01:27:58;;;;;;;7.30;4.68;;;;;;;;;;5112219;28;20020;-62
2023/07/17 01:30:23;;;;;;;10.88;4.72;;;;;;;;;;5098482;28;20042;-61
2023/07/17 01:32:48;;;;;;;7.68;5.40;;;;;;;;;;5111470;28;20495;-62
2023/07/17 01:35:14;;;;;;;9.97;6.20;;;;;;;;;;5110857;28;20015;-61
2023/07/17 01:37:39;;;;;;;8.05;5.25;;;;;;;;;;5097688;28;20790;-61
2023/07/17 01:40:05;;;;;;;9.32;5.40;;;;;;;;;;5092074;28;20027;-61
2023/07/17 01:42:30;;;;;;;7.13;5.10;;;;;;;;;;5104054;28;20390;-62
2023/07/17 01:44:55;;;;;;;7.82;5.45;;;;;;;;;;5097869;28;20036;-62
2023/07/17 01:47:21;;;;;;;10.10;6.13;;;;;;;;;;5099430;28;20042;-62
2023/07/17 01:49:46;;;;;;;12.02;6.03;;;;;;;;;;5092433;28;20028;-62
2023/07/17 01:52:12;;;;;;;10.85;5.63;;;;;;;;;;5092028;28;20079;-62
2023/07/17 01:54:37;;;;;;;8.07;5.30;;;;;;;;;;5099919;28;20028;-62
2023/07/17 01:57:03;;;;;;;6.22;4.55;;;;;;;;;;5101907;28;20034;-62
2023/07/17 01:59:28;;;;;;;6.72;4.50;;;;;;;;;;5110872;28;20102;-62
2023/07/17 02:01:53;;;;;;;8.10;4.80;;;;;;;;;;5108685;28;20030;-62
2023/07/17 02:04:19;;;;;;;10.77;5.18;;;;;;;;;;5096303;28;20346;-62
2023/07/17 02:06:44;;;;;;;8.77;4.70;;;;;;;;;;5105755;28;20031;-62
2023/07/17 02:09:09;;;;;;;8.63;4.88;;;;;;;;;;5096169;28;20032;-62
2023/07/17 02:11:35;;;;;;;8.38;5.40;;;;;;;;;;5092362;28;20427;-62
2023/07/17 02:14:00;;;;;;;7.57;5.43;;;;;;;;;;5105242;28;20077;-62
2023/07/17 02:16:25;;;;;;;8.15;4.75;;;;;;;;;;5104165;28;20282;-62
2023/07/17 02:18:50;;;;;;;7.70;4.97;;;;;;;;;;5094354;28;20028;-62
2023/07/17 02:21:16;;;;;;;10.98;4.93;;;;;;;;;;5105869;28;20390;-62
2023/07/17 02:23:41;;;;;;;7.22;5.20;;;;;;;;;;5112094;28;20070;-62
2023/07/17 02:26:07;;;;;;;10.50;6.03;;;;;;;;;;5104697;28;20104;-62
2023/07/17 02:28:32;;;;;;;10.82;5.13;;;;;;;;;;5101750;28;20273;-62
2023/07/17 02:30:57;;;;;;;10.80;6.22;;;;;;;;;;5111732;28;20016;-62
2023/07/17 02:33:22;;;;;;;9.10;5.33;;;;;;;;;;5105715;28;20066;-62
2023/07/17 02:35:48;;;;;;;13.13;5.97;;;;;;;;;;5110928;28;20265;-62
2023/07/17 02:38:13;;;;;;;9.90;6.78;;;;;;;;;;5106344;28;20270;-62
2023/07/17 02:40:38;;;;;;;14.10;6.70;;;;;;;;;;5101707;28;20024;-62
2023/07/17 02:43:05;;;;;;;10.43;5.70;;;;;;;;;;5106775;28;20278;-62
2023/07/17 02:45:30;;;;;;;11.45;7.00;;;;;;;;;;5111341;28;20122;-62
2023/07/17 02:47:56;;;;;;;9.63;6.68;;;;;;;;;;5091827;28;20095;-61
2023/07/17 02:50:21;;;;;;;11.07;6.72;;;;;;;;;;5091641;28;20036;-61
2023/07/17 02:52:46;;;;;;;7.43;6.30;;;;;;;;;;5091705;28;20024;-61
2023/07/17 02:55:13;;;;;;;12.55;5.20;;;;;;;;;;5104618;28;20106;-61
2023/07/17 02:57:38;;;;;;;12.55;7.15;;;;;;;;;;5107852;28;20108;-62
2023/07/17 03:00:14;;;;;;;14.07;7.25;;;;;;;;;;5110973;28;20055;-62
2023/07/17 03:02:41;;;;;;;9.55;6.72;;;;;;;;;;5095315;28;20052;-62
2023/07/17 03:05:09;;;;;;;10.90;7.63;;;;;;;;;;5102440;28;20409;-62
2023/07/17 03:07:35;;;;;;;15.05;7.80;;;;;;;;;;5103075;28;20089;-62
2023/07/17 03:10:00;;;;;;;10.73;7.40;;;;;;;;;;5103617;28;20478;-61
2023/07/17 03:12:25;;;;;;;10.07;7.18;;;;;;;;;;5110204;28;20043;-62
2023/07/17 03:14:51;;;;;;;18.35;7.38;;;;;;;;;;5107596;28;20027;-62
2023/07/17 03:17:16;;;;;;;14.33;7.10;;;;;;;;;;5115098;28;20484;-61
2023/07/17 03:19:41;;;;;;;11.43;7.03;;;;;;;;;;5111459;28;20715;-62
2023/07/17 03:22:06;;;;;;;21.20;7.47;;;;;;;;;;5114420;28;20269;-62
2023/07/17 03:24:32;;;;;;;10.00;6.75;;;;;;;;;;5111395;28;20470;-62
2023/07/17 03:26:58;;;;;;;11.23;6.82;;;;;;;;;;5113807;28;20019;-62
2023/07/17 03:29:24;;;;;;;10.38;6.47;;;;;;;;;;5111686;28;20024;-62
2023/07/17 03:31:49;;;;;;;10.52;6.78;;;;;;;;;;5113453;28;20034;-62
2023/07/17 03:34:14;;;;;;;9.65;6.40;;;;;;;;;;5111846;28;20035;-62
2023/07/17 03:36:39;;;;;;;11.30;6.53;;;;;;;;;;5101477;28;20032;-62
2023/07/17 03:39:05;;;;;;;14.00;7.17;;;;;;;;;;5094090;28;20042;-63
2023/07/17 03:41:30;;;;;;;9.75;6.85;;;;;;;;;;5100415;28;20273;-63
2023/07/17 03:43:58;;;;;;;12.13;6.10;;;;;;;;;;5111720;28;20055;-62
2023/07/17 03:46:23;;;;;;;10.23;5.90;;;;;;;;;;5104816;28;20028;-62
2023/07/17 03:48:48;;;;;;;12.48;6.60;;;;;;;;;;5093831;28;20043;-62
2023/07/17 03:51:14;;;;;;;9.80;6.03;;;;;;;;;;5107992;28;20011;-62
2023/07/17 03:53:39;;;;;;;8.75;6.15;;;;;;;;;;5109363;28;20020;-62
2023/07/17 03:56:04;;;;;;;8.93;6.57;;;;;;;;;;5109533;28;20092;-62
2023/07/17 03:58:30;;;;;;;14.00;7.97;;;;;;;;;;5111940;28;20295;-63
2023/07/17 04:00:55;;;;;;;13.52;7.00;;;;;;;;;;5109614;28;20055;-62
2023/07/17 04:03:20;;;;;;;13.33;7.70;;;;;;;;;;5105563;28;20469;-63
2023/07/17 04:05:47;;;;;;;11.30;7.13;;;;;;;;;;5107562;28;20639;-63
2023/07/17 04:08:12;;;;;;;15.55;7.68;;;;;;;;;;5107491;28;20024;-63
2023/07/17 04:10:38;;;;;;;13.07;7.63;;;;;;;;;;5108784;28;20096;-63
2023/07/17 04:13:03;;;;;;;9.45;6.95;;;;;;;;;;5106542;28;20036;-63
2023/07/17 04:15:29;;;;;;;13.25;7.95;;;;;;;;;;5103102;28;20106;-62
2023/07/17 04:17:54;;;;;;;11.75;7.50;;;;;;;;;;5108980;28;20099;-63
2023/07/17 04:20:20;;;;;;;13.90;8.90;;;;;;;;;;5100643;28;20115;-63
2023/07/17 04:22:45;;;;;;;15.00;8.70;;;;;;;;;;5100091;28;20024;-63
2023/07/17 04:25:10;;;;;;;15.03;8.53;;;;;;;;;;5110224;28;20271;-62
2023/07/17 04:27:35;;;;;;;13.90;8.48;;;;;;;;;;5111082;28;20604;-62
2023/07/17 04:30:01;;;;;;;11.20;8.35;;;;;;;;;;5099253;28;20020;-63
2023/07/17 04:32:26;;;;;;;12.35;8.57;;;;;;;;;;5111567;28;20081;-62
2023/07/17 04:34:52;;;;;;;13.02;8.18;;;;;;;;;;5110842;28;20075;-63
2023/07/17 04:37:18;;;;;;;13.07;7.93;;;;;;;;;;5103676;28;20028;-62
2023/07/17 04:39:43;;;;;;;14.32;8.75;;;;;;;;;;5098676;28;20511;-62
2023/07/17 04:42:09;;;;;;;11.97;8.13;;;;;;;;;;5098228;28;20020;-62
2023/07/17 04:44:34;;;;;;;13.35;8.50;;;;;;;;;;5107414;28;20360;-62
2023/07/17 04:46:59;;;;;;;16.27;8.33;;;;;;;;;;5107910;28;20378;-62
2023/07/17 04:49:24;;;;;;;11.93;7.67;;;;;;;;;;5100004;28;20320;-62
2023/07/17 04:51:50;;;;;;;18.20;8.50;;;;;;;;;;5106604;28;20301;-62
2023/07/17 04:54:15;;;;;;;16.23;7.90;;;;;;;;;;5107005;28;20406;-61
2023/07/17 04:56:40;;;;;;;12.90;8.18;;;;;;;;;;5113284;28;20315;-62
2023/07/17 04:59:05;;;;;;;19.25;7.55;;;;;;;;;;5112889;28;20027;-64
2023/07/17 05:01:31;;;;;;;15.03;7.30;;;;;;;;;;5103793;28;20031;-64
2023/07/17 05:03:56;;;;;;;16.70;7.27;;;;;;;;;;5092742;28;20270;-62
2023/07/17 05:06:21;;;;;;;23.88;8.85;;;;;;;;;;5113318;28;20800;-61
2023/07/17 05:08:46;;;;;;;13.88;7.72;;;;;;;;;;5112258;28;20033;-61
2023/07/17 05:11:12;;;;;;;14.50;6.93;;;;;;;;;;5111142;28;20339;-62
2023/07/17 05:13:37;;;;;;;11.82;7.22;;;;;;;;;;5106891;28;20264;-62
2023/07/17 05:16:02;;;;;;;16.83;8.07;;;;;;;;;;5106704;28;20101;-62
2023/07/17 05:18:28;;;;;;;11.95;7.60;;;;;;;;;;5106453;28;20048;-62
2023/07/17 05:20:53;;;;;;;11.87;7.30;;;;;;;;;;5094211;28;20016;-62
2023/07/17 05:23:18;;;;;;;13.23;7.38;;;;;;;;;;5110335;28;20273;-62
2023/07/17 05:25:59;;;;;;;9.52;6.38;;;;;;;;;;5112149;28;20448;-62
2023/07/17 05:28:25;;;;;;;10.88;6.40;;;;;;;;;;5112897;28;20034;-62
2023/07/17 05:30:51;;;;;;;9.85;6.78;;;;;;;;;;5112651;28;20016;-62
2023/07/17 05:33:16;;;;;;;17.40;7.30;;;;;;;;;;5112654;28;20031;-61
2023/07/17 05:35:41;;;;;;;10.50;6.53;;;;;;;;;;5111870;28;20157;-61
2023/07/17 05:38:06;;;;;;;9.98;6.50;;;;;;;;;;5111593;28;20057;-61
2023/07/17 05:40:35;;;;;;;15.75;7.05;;;;;;;;;;5109260;28;20083;-61
2023/07/17 05:43:00;;;;;;;11.02;7.00;;;;;;;;;;5092558;28;20091;-63
2023/07/17 05:45:25;;;;;;;10.50;5.78;;;;;;;;;;5104003;28;20020;-63
2023/07/17 05:47:50;;;;;;;10.67;6.00;;;;;;;;;;5098747;28;20016;-63
2023/07/17 05:50:15;;;;;;;15.30;5.73;;;;;;;;;;5111936;28;20352;-63
2023/07/17 05:52:41;;;;;;;11.35;6.00;;;;;;;;;;5111356;28;20293;-63
2023/07/17 05:55:06;;;;;;;9.90;5.73;;;;;;;;;;5111791;28;20477;-62
2023/07/17 05:57:31;;;;;;;14.27;5.55;;;;;;;;;;5111594;28;20305;-62
2023/07/17 05:59:57;;;;;;;12.77;5.90;;;;;;;;;;5112019;28;20085;-63
2023/07/17 06:02:22;;;;;;;12.80;6.30;;;;;;;;;;5111599;28;20531;-63
2023/07/17 06:04:47;;;;;;;12.10;6.60;;;;;;;;;;5110254;28;20270;-63
2023/07/17 06:07:13;;;;;;;10.18;5.82;;;;;;;;;;5110647;28;20266;-63
2023/07/17 06:09:38;;;;;;;14.45;6.65;;;;;;;;;;5104381;28;20027;-63
2023/07/17 06:12:03;;;;;;;14.02;5.80;;;;;;;;;;5110240;28;20023;-63
2023/07/17 06:14:29;;;;;;;13.88;5.53;;;;;;;;;;5110845;28;20016;-63
2023/07/17 06:16:54;;;;;;;10.52;6.05;;;;;;;;;;5109737;28;20019;-63
2023/07/17 06:19:19;;;;;;;13.98;5.90;;;;;;;;;;5110510;28;20031;-63
2023/07/17 06:21:44;;;;;;;15.30;6.25;;;;;;;;;;5110047;28;20031;-63
2023/07/17 06:24:10;;;;;;;12.43;7.13;;;;;;;;;;5110260;28;20108;-63
2023/07/17 06:26:36;;;;;;;13.25;6.82;;;;;;;;;;5087442;28;20032;-63
2023/07/17 06:29:02;;;;;;;12.95;6.40;;;;;;;;;;5102948;28;20024;-63
2023/07/17 06:31:27;;;;;;;9.23;5.63;;;;;;;;;;5110512;28;20032;-63
2023/07/17 06:33:52;;;;;;;18.40;6.35;;;;;;;;;;5111561;28;20444;-63
2023/07/17 06:36:17;;;;;;;14.13;6.67;;;;;;;;;;5105702;28;20020;-63
2023/07/17 06:38:43;;;;;;;22.65;6.53;;;;;;;;;;5102563;28;20265;-63
2023/07/17 06:41:08;;;;;;;13.80;7.82;;;;;;;;;;5096432;28;20030;-63
2023/07/17 06:43:33;;;;;;;13.20;6.40;;;;;;;;;;5091389;28;20031;-63
2023/07/17 06:45:58;;;;;;;11.20;6.13;;;;;;;;;;5093078;28;20039;-63
2023/07/17 06:48:24;;;;;;;10.88;6.78;;;;;;;;;;5102140;28;20027;-63
2023/07/17 06:50:50;;;;;;;12.52;6.28;;;;;;;;;;5103744;28;20024;-63
2023/07/17 06:53:16;;;;;;;14.65;6.82;;;;;;;;;;5106947;28;20035;-63
2023/07/17 06:55:41;;;;;;;11.27;6.90;;;;;;;;;;5106191;28;20020;-64
2023/07/17 06:58:07;;;;;;;14.38;7.07;;;;;;;;;;5112516;28;20032;-64
2023/07/17 07:00:32;;;;;;;19.65;6.60;;;;;;;;;;5105914;28;20471;-64
2023/07/17 07:02:58;;;;;;;19.38;6.07;;;;;;;;;;5104041;28;20019;-63
2023/07/17 07:05:23;;;;;;;12.57;7.20;;;;;;;;;;5106639;28;20073;-64
2023/07/17 07:07:48;;;;;;;12.97;7.00;;;;;;;;;;5110836;28;20273;-64
2023/07/17 07:10:13;;;;;;;12.23;6.87;;;;;;;;;;5105295;28;20269;-63
2023/07/17 07:12:39;;;;;;;15.13;6.93;;;;;;;;;;5102124;28;20285;-64
2023/07/17 07:15:06;;;;;;;12.57;7.55;;;;;;;;;;5104082;28;20412;-64
2023/07/17 07:17:32;;;;;;;16.50;8.82;;;;;;;;;;5100236;28;20027;-63
2023/07/17 07:19:57;;;;;;;12.23;7.53;;;;;;;;;;5098089;28;20086;-63
2023/07/17 07:22:22;;;;;;;16.40;8.50;;;;;;;;;;5101499;28;20274;-64
2023/07/17 07:24:47;;;;;;;10.50;6.90;;;;;;;;;;5102422;28;20277;-64
2023/07/17 07:27:13;;;;;;;15.00;7.65;;;;;;;;;;5107367;28;20269;-63
2023/07/17 07:29:38;;;;;;;13.40;7.78;;;;;;;;;;5107127;28;20016;-64
2023/07/17 07:32:04;;;;;;;14.57;8.20;;;;;;;;;;5113374;28;20042;-64
2023/07/17 07:34:29;;;;;;;16.08;7.97;;;;;;;;;;5112708;28;20416;-64
2023/07/17 07:36:54;;;;;;;17.58;7.80;;;;;;;;;;5099620;28;20070;-64
2023/07/17 07:39:19;;;;;;;22.10;8.10;;;;;;;;;;5113757;28;20494;-64
2023/07/17 07:41:45;;;;;;;12.90;6.97;;;;;;;;;;5106514;28;20016;-64
2023/07/17 07:44:10;;;;;;;19.92;8.98;;;;;;;;;;5104765;28;20285;-64
2023/07/17 07:46:35;;;;;;;14.27;7.90;;;;;;;;;;5095880;28;20378;-64
2023/07/17 07:49:01;;;;;;;11.03;6.90;;;;;;;;;;5109201;28;20059;-63
2023/07/17 07:51:26;;;;;;;16.15;8.10;;;;;;;;;;5112157;28;20277;-63
2023/07/17 07:53:51;;;;;;;15.83;7.33;;;;;;;;;;5111994;28;20080;-64
2023/07/17 07:56:17;;;;;;;14.40;7.38;;;;;;;;;;5113363;28;20277;-64
2023/07/17 07:58:42;;;;;;;11.57;7.15;;;;;;;;;;5111785;28;20043;-64
2023/07/17 08:01:08;;;;;;;10.67;7.13;;;;;;;;;;5106891;28;20030;-64
2023/07/17 08:03:33;;;;;;;13.77;7.67;;;;;;;;;;5107036;28;20358;-64
2023/07/17 08:05:59;;;;;;;11.07;6.55;;;;;;;;;;5114158;28;20670;-64
2023/07/17 08:08:24;;;;;;;17.35;6.78;;;;;;;;;;5102214;28;20118;-64
2023/07/17 08:10:53;;;;;;;12.60;6.90;;;;;;;;;;5105329;28;20103;-64
2023/07/17 08:13:18;;;;;;;12.38;7.18;;;;;;;;;;5107241;28;20304;-64
2023/07/17 08:15:43;;;;;;;12.45;7.40;;;;;;;;;;5110302;28;20051;-64
2023/07/17 08:18:09;;;;;;;8.30;6.37;;;;;;;;;;5110415;28;20019;-64
2023/07/17 08:20:34;;;;;;;10.97;6.80;;;;;;;;;;5104586;28;20324;-64
2023/07/17 08:22:59;;;;;;;11.40;6.43;;;;;;;;;;5104251;28;20323;-65
2023/07/17 08:25:24;;;;;;;16.27;6.97;;;;;;;;;;5113023;28;20269;-64
2023/07/17 08:27:50;;;;;;;16.43;7.80;;;;;;;;;;5109363;28;20030;-65
2023/07/17 08:30:15;;;;;;;12.43;6.53;;;;;;;;;;5113165;28;20763;-64
2023/07/17 08:32:40;;;;;;;11.75;5.95;;;;;;;;;;5113520;28;20062;-65
2023/07/17 08:35:06;;;;;;;13.38;6.78;;;;;;;;;;5092583;28;20028;-64
2023/07/17 08:37:31;;;;;;;11.13;6.68;;;;;;;;;;5105161;28;20020;-65
2023/07/17 08:39:56;;;;;;;12.70;6.82;;;;;;;;;;5101597;28;20039;-65
2023/07/17 08:42:22;;;;;;;12.63;6.13;;;;;;;;;;5100062;28;20544;-65
2023/07/17 08:44:48;;;;;;;9.27;6.47;;;;;;;;;;5106833;28;20270;-65
2023/07/17 08:47:13;;;;;;;9.20;6.07;;;;;;;;;;5093113;28;20031;-64
2023/07/17 08:49:39;;;;;;;14.30;7.38;;;;;;;;;;5092664;28;20028;-65
2023/07/17 08:52:05;;;;;;;12.77;6.47;;;;;;;;;;5092893;28;20024;-65
2023/07/17 08:54:30;;;;;;;16.25;6.45;;;;;;;;;;5099686;28;20108;-65
2023/07/17 08:56:59;;;;;;;9.43;6.78;;;;;;;;;;5100575;28;20459;-65
2023/07/17 08:59:24;;;;;;;11.50;6.78;;;;;;;;;;5094344;28;20043;-65
2023/07/17 09:01:50;;;;;;;10.50;6.32;;;;;;;;;;5095692;28;20036;-66
2023/07/17 09:04:16;;;;;;;15.18;6.18;;;;;;;;;;5104482;28;20039;-64
2023/07/17 09:06:41;;;;;;;17.00;7.43;;;;;;;;;;5094356;28;20024;-66
2023/07/17 09:09:09;;;;;;;11.47;7.17;;;;;;;;;;5106089;28;20099;-66
2023/07/17 09:11:34;;;;;;;11.35;6.68;;;;;;;;;;5096308;28;20310;-66
2023/07/17 09:13:59;;;;;;;12.93;7.63;;;;;;;;;;5094543;28;20525;-66
2023/07/17 09:16:25;;;;;;;14.67;7.07;;;;;;;;;;5100624;28;20045;-66
2023/07/17 09:18:51;;;;;;;10.10;6.05;;;;;;;;;;5099833;28;20300;-65
2023/07/17 09:21:21;;;;;;;15.05;7.22;;;;;;;;;;5104526;28;20019;-65
2023/07/17 09:23:50;;;;;;;10.52;6.65;;;;;;;;;;5099806;28;20023;-66
2023/07/17 09:26:17;;;;;;;9.82;6.43;;;;;;;;;;5110255;28;20027;-65
2023/07/17 09:28:52;;;;;;;12.15;5.90;;;;;;;;;;5109004;28;20043;-66
2023/07/17 09:31:30;;;;;;;9.88;6.70;;;;;;;;;;5098064;28;20056;-66
2023/07/17 09:34:00;;;;;;;10.20;6.95;;;;;;;;;;5109591;28;20034;-65
2023/07/17 09:36:25;;;;;;;9.30;6.40;;;;;;;;;;5090319;28;20035;-65
2023/07/17 09:38:55;;;;;;;18.75;6.43;;;;;;;;;;5100604;28;20513;-66
2023/07/17 09:41:23;;;;;;;8.95;4.95;;;;;;;;;;5107587;28;20436;-66
2023/07/17 09:43:53;;;;;;;14.10;6.50;;;;;;;;;;5101000;28;20103;-65
2023/07/17 09:46:18;;;;;;;9.75;6.10;;;;;;;;;;5100307;28;20024;-66
2023/07/17 09:48:43;;;;;;;9.80;5.63;;;;;;;;;;5103985;28;20031;-66
2023/07/17 09:51:09;;;;;;;8.60;5.80;;;;;;;;;;5100472;28;20020;-66
2023/07/17 09:53:35;;;;;;;12.13;5.80;;;;;;;;;;5093117;28;20281;-66
2023/07/17 09:56:01;;;;;;;10.68;6.15;;;;;;;;;;5107295;28;20028;-65
2023/07/17 09:58:27;;;;;;;10.05;6.03;;;;;;;;;;5111889;28;20433;-66
2023/07/17 10:00:53;;;;;;;11.75;5.93;;;;;;;;;;5106845;28;20703;-66
2023/07/17 10:03:21;;;;;;;13.02;6.03;;;;;;;;;;5109659;28;20035;-66
2023/07/17 10:05:47;;;;;;;10.80;6.07;;;;;;;;;;5102123;28;20063;-66
2023/07/17 10:08:13;;;;;;;9.68;6.03;;;;;;;;;;5105175;28;20012;-66
2023/07/17 10:10:38;;;;;;;10.23;5.72;;;;;;;;;;5104548;28;20051;-66
2023/07/17 10:13:07;;;;;;;10.93;6.10;;;;;;;;;;5103732;28;20451;-66
2023/07/17 10:15:33;;;;;;;12.48;6.95;;;;;;;;;;5098647;28;20073;-66
2023/07/17 10:17:59;;;;;;;11.13;5.82;;;;;;;;;;5102581;28;20028;-64
2023/07/17 10:20:25;;;;;;;13.32;6.65;;;;;;;;;;5105242;28;20038;-64
2023/07/17 10:22:50;;;;;;;9.48;6.13;;;;;;;;;;5108189;28;20054;-65
2023/07/17 10:25:18;;;;;;;9.75;6.25;;;;;;;;;;5107354;28;20059;-64
2023/07/17 10:27:45;;;;;;;10.52;5.45;;;;;;;;;;5109047;28;20023;-65
2023/07/17 10:30:22;;;;;;;8.57;6.10;;;;;;;;;;5094919;28;20024;-66
2023/07/17 10:32:49;;;;;;;10.63;5.82;;;;;;;;;;5108553;28;20027;-66
2023/07/17 10:35:20;;;;;;;10.10;5.55;;;;;;;;;;5109940;28;20037;-66
2023/07/17 10:37:46;;;;;;;8.00;4.95;;;;;;;;;;5107500;28;20038;-66
2023/07/17 10:40:27;;;;;;;8.93;6.10;;;;;;;;;;5099511;28;20031;-66
2023/07/17 10:42:53;;;;;;;9.00;5.47;;;;;;;;;;5099340;28;20284;-66
2023/07/17 10:45:18;;;;;;;14.52;7.45;;;;;;;;;;5093933;28;20028;-65
2023/07/17 10:47:48;;;;;;;10.43;5.47;;;;;;;;;;5091090;28;20024;-66
2023/07/17 10:50:13;;;;;;;12.25;6.15;;;;;;;;;;5096634;28;20281;-66
2023/07/17 10:52:38;;;;;;;9.57;6.00;;;;;;;;;;5109188;28;20493;-66
2023/07/17 10:55:04;;;;;;;11.23;7.20;;;;;;;;;;5110894;28;20850;-66
2023/07/17 10:57:29;;;;;;;10.10;5.60;;;;;;;;;;5110349;28;20269;-66
2023/07/17 10:59:56;;;;;;;9.52;5.80;;;;;;;;;;5111219;28;20029;-66
2023/07/17 11:02:22;;;;;;;9.20;5.80;;;;;;;;;;5096776;28;20107;-67
2023/07/17 11:04:52;;;;;;;12.70;6.03;;;;;;;;;;5110546;28;20072;-66
2023/07/17 11:07:17;;;;;;;7.38;5.55;;;;;;;;;;5105383;28;20038;-66
2023/07/17 11:09:43;;;;;;;8.90;6.13;;;;;;;;;;5103632;28;20043;-66
2023/07/17 11:12:08;;;;;;;11.45;5.53;;;;;;;;;;5106137;28;20269;-66
2023/07/17 11:14:34;;;;;;;8.75;5.32;;;;;;;;;;5109625;28;20027;-66
2023/07/17 11:16:59;;;;;;;9.57;6.05;;;;;;;;;;5103095;28;20438;-66
2023/07/17 11:19:25;;;;;;;8.93;5.00;;;;;;;;;;5106528;28;20030;-65
2023/07/17 11:21:50;;;;;;;8.03;4.87;;;;;;;;;;5108967;28;20635;-66
2023/07/17 11:24:15;;;;;;;12.73;5.47;;;;;;;;;;5110861;28;20661;-66
2023/07/17 11:26:41;;;;;;;15.02;5.85;;;;;;;;;;5108188;28;20343;-67
2023/07/17 11:29:06;;;;;;;8.82;5.93;;;;;;;;;;5111514;28;20030;-67
2023/07/17 11:31:33;;;;;;;7.63;5.47;;;;;;;;;;5106736;28;20024;-64
2023/07/17 11:33:59;;;;;;;7.95;4.38;;;;;;;;;;5107660;28;20027;-66
2023/07/17 11:36:25;;;;;;;9.13;5.20;;;;;;;;;;5103139;28;20110;-66
2023/07/17 11:38:50;;;;;;;9.45;5.68;;;;;;;;;;5112387;28;20107;-67
2023/07/17 11:41:15;;;;;;;9.30;5.22;;;;;;;;;;5097776;28;20043;-68
2023/07/17 11:43:41;;;;;;;14.00;6.13;;;;;;;;;;5094261;28;20103;-67
2023/07/17 11:46:07;;;;;;;10.87;5.80;;;;;;;;;;5103174;28;20274;-63
2023/07/17 11:48:34;;;;;;;12.02;5.53;;;;;;;;;;5105840;28;20285;-66
2023/07/17 11:51:03;;;;;;;10.10;4.68;;;;;;;;;;5112670;28;20023;-67
2023/07/17 11:53:28;;;;;;;9.98;5.45;;;;;;;;;;5102105;28;20048;-66
2023/07/17 11:55:54;;;;;;;7.93;4.80;;;;;;;;;;5093729;28;20056;-65
2023/07/17 11:58:20;;;;;;;5.65;4.20;;;;;;;;;;5094421;28;20300;-66
2023/07/17 12:00:46;;;;;;;6.00;4.25;;;;;;;;;;5093654;28;20070;-67
2023/07/17 12:03:12;;;;;;;6.10;4.03;;;;;;;;;;5087688;28;20027;-65
2023/07/17 12:05:37;;;;;;;7.55;4.00;;;;;;;;;;5108779;28;20489;-67
2023/07/17 12:08:03;;;;;;;15.40;4.63;;;;;;;;;;5097031;28;20077;-66
2023/07/17 12:10:28;;;;;;;6.22;4.00;;;;;;;;;;5094378;28;20016;-66
2023/07/17 12:12:53;;;;;;;13.85;4.80;;;;;;;;;;5104989;28;20027;-66
2023/07/17 12:15:19;;;;;;;8.53;4.63;;;;;;;;;;5100158;28;20034;-66
2023/07/17 12:17:44;;;;;;;11.90;5.17;;;;;;;;;;5113737;28;20276;-67
2023/07/17 12:20:09;;;;;;;7.40;4.07;;;;;;;;;;5112160;28;20829;-66
2023/07/17 12:22:35;;;;;;;5.90;4.50;;;;;;;;;;5110756;28;20027;-65
2023/07/17 12:25:00;;;;;;;6.77;4.23;;;;;;;;;;5103327;28;20024;-67
2023/07/17 12:27:25;;;;;;;8.60;4.17;;;;;;;;;;5103319;28;20645;-64
2023/07/17 12:29:50;;;;;;;9.37;4.87;;;;;;;;;;5103413;28;20039;-66
2023/07/17 12:32:16;;;;;;;9.13;3.90;;;;;;;;;;5103446;28;20331;-67
2023/07/17 12:34:41;;;;;;;9.27;4.85;;;;;;;;;;5109409;28;20028;-66
2023/07/17 12:37:06;;;;;;;8.10;4.57;;;;;;;;;;5111267;28;20070;-67
2023/07/17 12:39:31;;;;;;;6.93;3.92;;;;;;;;;;5110660;28;20110;-65
2023/07/17 12:41:57;;;;;;;7.17;4.03;;;;;;;;;;5105670;28;20042;-67
2023/07/17 12:44:22;;;;;;;5.97;3.47;;;;;;;;;;5109486;28;20026;-67
2023/07/17 12:46:47;;;;;;;7.07;3.97;;;;;;;;;;5103826;28;20269;-67
2023/07/17 12:49:13;;;;;;;6.53;3.87;;;;;;;;;;5104477;28;20263;-65
2023/07/17 12:51:38;;;;;;;8.88;4.38;;;;;;;;;;5105411;28;20066;-66
2023/07/17 12:54:03;;;;;;;8.45;4.03;;;;;;;;;;5104043;28;20459;-67
2023/07/17 12:56:29;;;;;;;8.20;4.28;;;;;;;;;;5108124;28;20024;-66
2023/07/17 12:58:54;;;;;;;6.85;4.05;;;;;;;;;;5098862;28;20035;-65
2023/07/17 13:01:19;;;;;;;8.32;4.18;;;;;;;;;;5107779;28;20054;-66
2023/07/17 13:03:44;;;;;;;10.57;4.63;;;;;;;;;;5100783;28;20416;-66
2023/07/17 13:06:10;;;;;;;9.97;4.20;;;;;;;;;;5103792;28;20462;-67
2023/07/17 13:08:35;;;;;;;9.83;4.30;;;;;;;;;;5107418;28;20028;-66
2023/07/17 13:11:00;;;;;;;6.77;4.33;;;;;;;;;;5104305;28;20304;-65
2023/07/17 13:13:25;;;;;;;5.97;3.50;;;;;;;;;;5112306;28;20655;-65
2023/07/17 13:15:51;;;;;;;12.03;3.47;;;;;;;;;;5100987;28;20378;-63
2023/07/17 13:18:16;;;;;;;5.20;3.33;;;;;;;;;;5092176;28;20262;-65
2023/07/17 13:20:41;;;;;;;4.97;2.90;;;;;;;;;;5103142;28;20767;-64
2023/07/17 13:23:06;;;;;;;7.83;3.00;;;;;;;;;;5094311;28;20660;-66
2023/07/17 13:25:32;;;;;;;5.83;3.10;;;;;;;;;;5092092;28;20270;-68
2023/07/17 13:27:57;;;;;;;8.33;2.70;;;;;;;;;;5092591;28;20268;-66
2023/07/17 13:30:22;;;;;;;6.90;2.70;;;;;;;;;;5098961;28;20265;-65
2023/07/17 13:32:47;;;;;;;5.72;2.63;;;;;;;;;;5107848;28;20494;-65
2023/07/17 13:35:12;;;;;;;5.23;2.70;;;;;;;;;;5092120;28;20032;-67
2023/07/17 13:37:38;;;;;;;9.80;2.97;;;;;;;;;;5092166;28;20274;-65
2023/07/17 13:40:03;;;;;;;5.83;3.00;;;;;;;;;;5092482;28;20294;-66
2023/07/17 13:42:28;;;;;;;7.13;3.03;;;;;;;;;;5102281;28;20670;-63
2023/07/17 13:44:59;;;;;;;4.20;2.50;;;;;;;;;;5111267;28;20482;-66
2023/07/17 13:47:24;;;;;;;5.63;2.95;;;;;;;;;;5098407;28;20281;-66
2023/07/17 13:49:49;;;;;;;5.93;2.70;;;;;;;;;;5101595;28;20104;-66
2023/07/17 13:52:15;;;;;;;6.63;3.13;;;;;;;;;;5090759;28;20302;-67
2023/07/17 13:54:40;;;;;;;6.63;2.93;;;;;;;;;;5090076;28;20266;-66
2023/07/17 13:57:05;;;;;;;4.10;2.63;;;;;;;;;;5106072;28;20285;-65
2023/07/17 13:59:31;;;;;;;5.13;2.78;;;;;;;;;;5091743;28;20702;-65
2023/07/17 14:01:56;;;;;;;6.63;2.97;;;;;;;;;;5092675;28;20074;-65
2023/07/17 14:04:21;;;;;;;6.70;2.93;;;;;;;;;;5093266;28;20339;-65
2023/07/17 14:06:46;;;;;;;4.20;2.40;;;;;;;;;;5104087;28;20332;-65
2023/07/17 14:09:11;;;;;;;9.70;2.93;;;;;;;;;;5097375;28;20175;-65
2023/07/17 14:11:37;;;;;;;7.73;3.13;;;;;;;;;;5110517;28;20266;-65
2023/07/17 14:14:03;;;;;;;4.93;2.50;;;;;;;;;;5110022;28;20309;-65
2023/07/17 14:16:29;;;;;;;5.40;2.33;;;;;;;;;;5110047;28;20436;-66
2023/07/17 14:18:54;;;;;;;6.18;3.20;;;;;;;;;;5091798;28;20049;-67
2023/07/17 14:21:19;;;;;;;4.78;2.90;;;;;;;;;;5093219;28;20032;-67
2023/07/17 14:23:45;;;;;;;3.80;2.57;;;;;;;;;;5111106;28;20173;-66
2023/07/17 14:26:11;;;;;;;4.60;2.88;;;;;;;;;;5107833;28;20728;-64